createdAt,value
2018-12-15T00:00:06.248Z,7.57
2018-12-15T00:02:59.306Z,6.12
2018-12-15T00:05:52.368Z,8.53
2018-12-15T00:08:45.929Z,6.65
2018-12-15T00:11:38.989Z,7.33
2018-12-15T00:14:33.065Z,5.40
2018-12-15T00:17:26.121Z,7.00
2018-12-15T00:20:19.246Z,4.17
2018-12-15T00:23:12.234Z,5.83
2018-12-15T00:26:05.296Z,5.67
2018-12-15T00:28:58.353Z,9.75
2018-12-15T00:31:51.412Z,8.10
2018-12-15T00:34:46.620Z,4.17
2018-12-15T00:37:37.517Z,5.00
2018-12-15T00:40:27.082Z,9.17
2018-12-15T00:43:23.115Z,7.53
2018-12-15T00:46:19.754Z,8.10
2018-12-15T00:49:12.812Z,8.47
2018-12-15T00:52:05.863Z,5.23
2018-12-15T00:54:58.922Z,6.93
2018-12-15T00:57:51.983Z,11.13
2018-12-15T01:00:45.293Z,8.03
2018-12-15T01:03:41.930Z,9.13
2018-12-15T01:06:34.728Z,5.60
2018-12-15T01:09:28.042Z,11.18
2018-12-15T01:12:22.200Z,12.17
2018-12-15T01:15:15.178Z,9.90
2018-12-15T01:18:08.233Z,11.08
2018-12-15T01:21:01.804Z,8.73
2018-12-15T01:23:57.675Z,11.67
2018-12-15T01:26:50.474Z,11.03
2018-12-15T01:29:43.528Z,8.90
2018-12-15T01:32:36.330Z,8.13
2018-12-15T01:35:30.412Z,11.87
2018-12-15T01:38:23.470Z,9.83
2018-12-15T01:41:16.529Z,9.43
2018-12-15T01:44:12.648Z,7.63
2018-12-15T01:47:05.708Z,6.97
2018-12-15T01:49:59.532Z,9.57
2018-12-15T01:52:52.585Z,9.63
2018-12-15T01:55:46.668Z,10.77
2018-12-15T01:58:39.466Z,32.50
2018-12-15T02:01:32.524Z,9.33
2018-12-15T02:04:25.582Z,12.27
2018-12-15T02:07:18.637Z,8.70
2018-12-15T02:10:11.692Z,8.67
2018-12-15T02:13:04.489Z,7.60
2018-12-15T02:15:57.546Z,6.13
2018-12-15T02:18:50.868Z,10.65
2018-12-15T02:21:43.914Z,10.67
2018-12-15T02:24:39.274Z,10.43
2018-12-15T02:27:32.330Z,6.33
2018-12-15T02:30:25.129Z,11.00
2018-12-15T02:33:18.191Z,10.93
2018-12-15T02:36:10.987Z,7.80
2018-12-15T02:39:03.786Z,11.77
2018-12-15T02:41:56.841Z,10.07
2018-12-15T02:44:49.903Z,10.33
2018-12-15T02:47:44.237Z,9.33
2018-12-15T02:50:45.742Z,9.73
2018-12-15T02:53:38.799Z,8.00
2018-12-15T02:56:28.011Z,10.37
2018-12-15T02:59:21.834Z,9.70
2018-12-15T03:02:14.653Z,7.50
2018-12-15T03:05:08.202Z,5.73
2018-12-15T03:08:01.520Z,6.60
2018-12-15T03:10:54.317Z,11.53
2018-12-15T03:13:47.883Z,6.03
2018-12-15T03:16:37.079Z,6.57
2018-12-15T03:19:41.418Z,9.97
2018-12-15T03:22:34.216Z,8.80
2018-12-15T03:25:27.019Z,9.20
2018-12-15T03:28:21.099Z,7.00
2018-12-15T03:31:10.322Z,4.37
2018-12-15T03:34:03.371Z,10.37
2018-12-15T03:36:56.428Z,10.58
2018-12-15T03:39:45.643Z,6.28
2018-12-15T03:42:38.441Z,6.13
2018-12-15T03:45:31.759Z,9.33
2018-12-15T03:48:25.834Z,7.73
2018-12-15T03:51:15.990Z,9.30
2018-12-15T03:54:09.387Z,10.87
2018-12-15T03:57:02.701Z,7.63
2018-12-15T03:59:58.059Z,10.90
2018-12-15T04:02:51.114Z,10.73
2018-12-15T04:05:40.328Z,11.67
2018-12-15T04:08:33.389Z,13.57
2018-12-15T04:11:26.440Z,9.77
2018-12-15T04:14:19.501Z,12.17
2018-12-15T04:17:12.298Z,12.40
2018-12-15T04:20:06.377Z,10.03
2018-12-15T04:22:59.433Z,7.97
2018-12-15T04:25:52.489Z,8.60
2018-12-15T04:28:45.549Z,9.77
2018-12-15T04:31:38.857Z,7.97
2018-12-15T04:34:31.916Z,11.60
2018-12-15T04:37:26.259Z,7.83
2018-12-15T04:40:19.306Z,12.70
2018-12-15T04:43:12.364Z,12.37
2018-12-15T04:46:05.422Z,8.27
2018-12-15T04:49:01.545Z,9.80
2018-12-15T04:51:54.602Z,9.47
2018-12-15T04:54:47.657Z,9.07
2018-12-15T04:57:41.481Z,9.67
2018-12-15T05:00:35.053Z,7.93
2018-12-15T05:03:29.131Z,11.33
2018-12-15T05:06:22.191Z,10.20
2018-12-15T05:09:16.524Z,11.27
2018-12-15T05:12:09.323Z,11.10
2018-12-15T05:15:02.379Z,8.87
2018-12-15T05:17:56.458Z,11.47
2018-12-15T05:20:49.258Z,10.23
2018-12-15T05:23:43.080Z,9.93
2018-12-15T05:26:36.137Z,8.63
2018-12-15T05:29:36.875Z,11.00
2018-12-15T05:32:29.933Z,10.47
2018-12-15T05:35:24.786Z,12.00
2018-12-15T05:38:17.575Z,7.67
2018-12-15T05:41:11.405Z,11.47
2018-12-15T05:44:04.457Z,10.17
2018-12-15T05:46:59.562Z,12.60
2018-12-15T05:49:53.899Z,9.37
2018-12-15T05:52:55.152Z,7.47
2018-12-15T05:55:48.214Z,7.83
2018-12-15T05:58:41.513Z,7.47
2018-12-15T06:01:35.594Z,12.27
2018-12-15T06:04:28.665Z,11.57
2018-12-15T06:07:21.962Z,8.90
2018-12-15T06:10:15.024Z,11.07
2018-12-15T06:13:10.889Z,10.20
2018-12-15T06:15:58.760Z,7.93
2018-12-15T06:18:54.697Z,8.17
2018-12-15T06:21:47.754Z,9.93
2018-12-15T06:24:41.584Z,11.43
2018-12-15T06:27:34.634Z,8.60
2018-12-15T06:30:35.882Z,8.27
2018-12-15T06:33:29.196Z,11.93
2018-12-15T06:36:21.998Z,8.80
2018-12-15T06:39:11.984Z,12.47
2018-12-15T06:42:05.291Z,12.03
2018-12-15T06:44:59.370Z,11.33
2018-12-15T06:47:52.427Z,6.33
2018-12-15T06:50:45.479Z,9.00
2018-12-15T06:53:38.538Z,11.90
2018-12-15T06:56:31.338Z,10.07
2018-12-15T06:59:18.508Z,12.07
2018-12-15T07:02:12.332Z,6.50
2018-12-15T07:05:05.642Z,12.50
2018-12-15T07:07:59.731Z,9.43
2018-12-15T07:10:52.780Z,10.47
2018-12-15T07:13:47.116Z,9.43
2018-12-15T07:16:40.428Z,12.37
2018-12-15T07:19:33.226Z,12.80
2018-12-15T07:22:27.561Z,10.90
2018-12-15T07:25:20.365Z,11.57
2018-12-15T07:28:13.676Z,10.27
2018-12-15T07:31:06.736Z,10.30
2018-12-15T07:33:53.901Z,11.47
2018-12-15T07:36:46.952Z,6.90
2018-12-15T07:39:40.779Z,13.87
2018-12-15T07:42:34.345Z,7.23
2018-12-15T07:45:28.426Z,9.90
2018-12-15T07:48:22.250Z,9.13
2018-12-15T07:51:15.312Z,8.50
2018-12-15T07:54:08.622Z,10.08
2018-12-15T07:57:01.673Z,9.73
2018-12-15T07:59:55.504Z,8.37
2018-12-15T08:02:50.091Z,8.80
2018-12-15T08:05:43.916Z,12.97
2018-12-15T08:08:36.971Z,10.03
2018-12-15T08:11:40.009Z,7.83
2018-12-15T08:14:37.485Z,7.28
2018-12-15T08:17:51.473Z,7.10
2018-12-15T08:20:59.116Z,9.68
2018-12-15T08:23:52.427Z,6.17
2018-12-15T08:27:09.329Z,10.37
2018-12-15T08:30:07.481Z,6.57
2018-12-15T08:33:01.039Z,11.93
2018-12-15T08:36:08.239Z,11.88
2018-12-15T08:39:04.300Z,10.57
2018-12-15T08:41:57.366Z,10.78
2018-12-15T08:44:52.216Z,8.05
2018-12-15T08:47:46.801Z,8.10
2018-12-15T08:50:40.109Z,11.90
2018-12-15T08:53:33.679Z,11.63
2018-12-15T08:56:26.990Z,9.98
2018-12-15T08:59:23.375Z,11.33
2018-12-15T09:02:16.943Z,11.20
2018-12-15T09:05:11.282Z,10.90
2018-12-15T09:08:05.614Z,12.30
2018-12-15T09:10:59.179Z,12.07
2018-12-15T09:13:52.239Z,9.73
2018-12-15T09:16:45.547Z,6.90
2018-12-15T09:19:38.861Z,11.70
2018-12-15T09:22:33.202Z,10.05
2018-12-15T09:25:26.509Z,9.47
2018-12-15T09:28:19.828Z,13.97
2018-12-15T09:31:13.390Z,9.53
2018-12-15T09:34:06.445Z,8.70
2018-12-15T09:37:02.568Z,9.15
2018-12-15T09:39:55.633Z,9.77
2018-12-15T09:42:48.942Z,12.83
2018-12-15T09:45:44.301Z,14.90
2018-12-15T09:48:34.239Z,12.43
2018-12-15T09:51:27.597Z,10.00
2018-12-15T09:54:22.701Z,12.88
2018-12-15T09:57:16.526Z,11.87
2018-12-15T10:00:10.353Z,15.87
2018-12-15T10:03:06.998Z,6.07
2018-12-15T10:06:01.582Z,15.73
2018-12-15T10:08:54.892Z,9.87
2018-12-15T10:11:51.030Z,11.63
2018-12-15T10:14:46.892Z,8.83
2018-12-15T10:17:40.459Z,9.33
2018-12-15T10:20:34.284Z,8.87
2018-12-15T10:23:23.915Z,12.20
2018-12-15T10:26:18.347Z,13.10
2018-12-15T10:29:12.689Z,10.60
2018-12-15T10:32:16.236Z,14.33
2018-12-15T10:35:09.549Z,14.10
2018-12-15T10:38:02.600Z,6.00
2018-12-15T10:40:55.416Z,13.00
2018-12-15T10:43:49.492Z,11.93
2018-12-15T10:46:42.539Z,12.73
2018-12-15T10:49:35.852Z,10.50
2018-12-15T10:52:29.167Z,7.77
2018-12-15T10:55:23.501Z,11.43
2018-12-15T10:58:17.578Z,8.45
2018-12-15T11:01:24.206Z,6.15
2018-12-15T11:04:17.514Z,11.57
2018-12-15T11:07:10.827Z,6.28
2018-12-15T11:10:04.910Z,10.93
2018-12-15T11:12:58.216Z,9.30
2018-12-15T11:15:53.069Z,12.13
2018-12-15T11:18:49.450Z,9.97
2018-12-15T11:21:43.019Z,6.70
2018-12-15T11:24:36.076Z,12.33
2018-12-15T11:27:29.640Z,14.43
2018-12-15T11:30:25.904Z,11.20
2018-12-15T11:33:16.780Z,6.10
2018-12-15T11:36:09.844Z,13.48
2018-12-15T11:39:02.635Z,10.58
2018-12-15T11:41:55.955Z,10.80
2018-12-15T11:44:49.261Z,10.13
2018-12-15T11:47:42.570Z,10.33
2018-12-15T11:50:35.898Z,9.55
2018-12-15T11:53:28.942Z,11.90
2018-12-15T11:56:21.997Z,11.27
2018-12-15T11:59:16.074Z,9.73
2018-12-15T12:02:09.387Z,13.95
2018-12-15T12:05:02.699Z,8.30
2018-12-15T12:07:55.754Z,10.25
2018-12-15T12:10:48.554Z,11.97
2018-12-15T12:13:41.866Z,10.15
2018-12-15T12:16:34.935Z,14.27
2018-12-15T12:19:29.002Z,13.57
2018-12-15T12:22:22.059Z,12.73
2018-12-15T12:25:11.018Z,8.97
2018-12-15T12:28:04.586Z,16.73
2018-12-15T12:30:59.179Z,8.07
2018-12-15T12:33:51.975Z,8.65
2018-12-15T12:36:41.196Z,13.53
2018-12-15T12:39:34.506Z,8.65
2018-12-15T12:42:27.821Z,12.35
2018-12-15T12:45:23.947Z,9.17
2018-12-15T12:48:17.258Z,9.10
2018-12-15T12:51:10.570Z,11.85
2018-12-15T12:54:03.883Z,9.93
2018-12-15T12:56:56.940Z,15.83
2018-12-15T12:59:50.269Z,12.88
2018-12-15T13:02:43.314Z,14.05
2018-12-15T13:05:37.387Z,13.23
2018-12-15T13:08:30.448Z,12.50
2018-12-15T13:11:23.758Z,12.87
2018-12-15T13:14:17.067Z,12.63
2018-12-15T13:17:05.419Z,15.37
2018-12-15T13:19:54.474Z,13.20
2018-12-15T13:22:48.555Z,12.67
2018-12-15T13:25:41.613Z,14.57
2018-12-15T13:28:34.931Z,11.77
2018-12-15T13:31:27.977Z,12.90
2018-12-15T13:34:21.548Z,12.57
2018-12-15T13:37:14.865Z,14.07
2018-12-15T13:40:08.174Z,11.07
2018-12-15T13:43:01.482Z,11.10
2018-12-15T13:45:56.588Z,12.88
2018-12-15T13:48:51.437Z,12.43
2018-12-15T13:51:44.494Z,16.03
2018-12-15T13:54:38.572Z,17.23
2018-12-15T13:57:32.141Z,14.85
2018-12-15T14:00:26.730Z,12.90
2018-12-15T14:03:20.303Z,18.50
2018-12-15T14:06:14.383Z,18.07
2018-12-15T14:09:07.949Z,17.27
2018-12-15T14:12:01.514Z,16.90
2018-12-15T14:14:55.337Z,13.17
2018-12-15T14:17:45.838Z,13.97
2018-12-15T14:20:38.902Z,14.63
2018-12-15T14:23:32.718Z,10.35
2018-12-15T14:26:33.711Z,13.93
2018-12-15T14:29:26.773Z,15.93
2018-12-15T14:32:20.079Z,14.17
2018-12-15T14:35:13.131Z,13.85
2018-12-15T14:38:05.933Z,17.30
2018-12-15T14:40:58.989Z,12.47
2018-12-15T14:43:52.048Z,17.02
2018-12-15T14:46:46.124Z,8.80
2018-12-15T14:49:38.926Z,9.95
2018-12-15T14:52:33.003Z,15.25
2018-12-15T14:55:25.803Z,20.88
2018-12-15T14:58:16.118Z,10.45
2018-12-15T15:01:06.032Z,9.47
2018-12-15T15:03:59.339Z,10.73
2018-12-15T15:06:52.652Z,9.27
2018-12-15T15:09:53.388Z,10.55
2018-12-15T15:12:46.446Z,14.67
2018-12-15T15:15:38.602Z,15.80
2018-12-15T15:18:32.554Z,13.43
2018-12-15T15:21:25.611Z,10.53
2018-12-15T15:24:18.676Z,17.97
2018-12-15T15:27:11.727Z,13.35
2018-12-15T15:30:04.781Z,14.75
2018-12-15T15:32:57.839Z,13.98
2018-12-15T15:35:51.659Z,12.87
2018-12-15T15:38:45.994Z,11.23
2018-12-15T15:41:39.318Z,19.67
2018-12-15T15:44:32.365Z,19.10
2018-12-15T15:47:25.419Z,22.55
2018-12-15T15:50:19.500Z,18.27
2018-12-15T15:53:12.555Z,16.15
2018-12-15T15:56:06.640Z,21.33
2018-12-15T15:58:59.949Z,13.68
2018-12-15T16:01:53.259Z,13.03
2018-12-15T16:04:46.828Z,11.17
2018-12-15T16:07:40.400Z,14.18
2018-12-15T16:10:34.222Z,17.90
2018-12-15T16:13:27.789Z,14.27
2018-12-15T16:16:21.354Z,18.03
2018-12-15T16:19:14.666Z,15.57
2018-12-15T16:23:05.940Z,22.37
2018-12-15T16:25:59.915Z,21.10
2018-12-15T16:28:56.813Z,16.60
2018-12-15T16:31:51.468Z,14.97
2018-12-15T16:34:45.748Z,27.17
2018-12-15T16:37:39.065Z,22.62
2018-12-15T16:40:28.795Z,17.60
2018-12-15T16:43:32.842Z,17.65
2018-12-15T16:46:39.779Z,15.50
2018-12-15T16:49:34.321Z,20.23
2018-12-15T16:52:28.657Z,18.50
2018-12-15T16:55:19.148Z,20.07
2018-12-15T16:58:16.073Z,18.87
2018-12-15T17:01:06.913Z,23.50
2018-12-15T17:04:00.106Z,20.90
2018-12-15T17:06:53.164Z,17.37
2018-12-15T17:09:45.193Z,18.33
2018-12-15T17:12:38.250Z,17.80
2018-12-15T17:15:32.075Z,20.57
2018-12-15T17:18:22.314Z,12.87
2018-12-15T17:21:15.629Z,20.50
2018-12-15T17:24:08.691Z,18.67
2018-12-15T17:27:01.749Z,15.47
2018-12-15T17:29:54.795Z,13.13
2018-12-15T17:32:47.857Z,11.53
2018-12-15T17:35:41.161Z,16.97
2018-12-15T17:38:34.993Z,15.65
2018-12-15T17:41:28.045Z,17.17
2018-12-15T17:44:21.614Z,23.90
2018-12-15T17:47:14.927Z,20.77
2018-12-15T17:50:08.745Z,24.72
2018-12-15T17:52:58.141Z,22.90
2018-12-15T17:55:45.644Z,18.00
2018-12-15T17:58:39.214Z,22.67
2018-12-15T18:01:33.034Z,13.27
2018-12-15T18:04:26.346Z,19.93
2018-12-15T18:07:19.663Z,15.33
2018-12-15T18:10:12.974Z,18.07
2018-12-15T18:13:06.537Z,16.43
2018-12-15T18:16:01.715Z,12.67
2018-12-15T18:18:47.963Z,14.87
2018-12-15T18:21:43.410Z,19.00
2018-12-15T18:24:36.716Z,19.27
2018-12-15T18:27:29.774Z,14.90
2018-12-15T18:30:22.827Z,16.17
2018-12-15T18:33:13.147Z,18.57
2018-12-15T18:36:06.892Z,17.37
2018-12-15T18:39:00.715Z,13.45
2018-12-15T18:41:55.051Z,11.63
2018-12-15T18:44:55.786Z,13.97
2018-12-15T18:47:45.259Z,16.20
2018-12-15T18:50:38.827Z,10.73
2018-12-15T18:53:32.906Z,17.27
2018-12-15T18:56:26.218Z,12.90
2018-12-15T18:59:20.047Z,18.57
2018-12-15T19:02:14.125Z,23.00
2018-12-15T19:05:09.739Z,14.03
2018-12-15T19:08:02.794Z,14.17
2018-12-15T19:10:55.595Z,16.60
2018-12-15T19:13:49.933Z,12.47
2018-12-15T19:16:44.270Z,16.82
2018-12-15T19:19:37.836Z,14.03
2018-12-15T19:22:34.232Z,10.60
2018-12-15T19:25:39.826Z,12.73
2018-12-15T19:28:33.915Z,12.30
2018-12-15T19:31:27.223Z,14.33
2018-12-15T19:34:20.267Z,13.20
2018-12-15T19:37:13.334Z,8.75
2018-12-15T19:40:09.458Z,11.08
2018-12-15T19:43:02.508Z,8.93
2018-12-15T19:45:55.818Z,12.17
2018-12-15T19:48:49.905Z,12.68
2018-12-15T19:51:43.210Z,13.43
2018-12-15T19:54:36.777Z,7.83
2018-12-15T19:57:29.835Z,9.13
2018-12-15T20:00:24.985Z,10.00
2018-12-15T20:03:17.999Z,7.53
2018-12-15T20:06:11.055Z,10.43
2018-12-15T20:09:04.367Z,6.97
2018-12-15T20:11:58.726Z,12.78
2018-12-15T20:14:52.269Z,6.15
2018-12-15T20:17:46.090Z,6.97
2018-12-15T20:20:39.921Z,7.37
2018-12-15T20:23:33.484Z,7.07
2018-12-15T20:26:27.308Z,9.67
2018-12-15T20:29:20.875Z,9.58
2018-12-15T20:32:14.200Z,8.08
2018-12-15T20:35:08.014Z,7.57
2018-12-15T20:38:02.090Z,9.03
2018-12-15T20:44:01.268Z,6.00
2018-12-15T20:46:54.341Z,6.17
2018-12-15T20:49:50.701Z,8.48
2018-12-15T20:52:47.491Z,7.73
2018-12-15T20:55:38.857Z,6.15
2018-12-15T20:58:32.170Z,7.67
2018-12-15T21:01:27.532Z,6.30
2018-12-15T21:04:20.844Z,5.55
2018-12-15T21:07:15.443Z,5.63
2018-12-15T21:10:10.029Z,5.65
2018-12-15T21:13:09.493Z,5.27
2018-12-15T21:16:09.456Z,5.92
2018-12-15T21:19:09.421Z,6.47
2018-12-15T21:21:59.918Z,6.30
2018-12-15T21:24:50.253Z,4.20
2018-12-15T21:27:44.496Z,4.03
2018-12-15T21:30:38.832Z,3.92
2018-12-15T21:33:37.001Z,4.00
2018-12-15T21:36:31.083Z,3.60
2018-12-15T21:39:20.316Z,4.50
2018-12-15T21:42:26.665Z,5.53
2018-12-15T21:45:20.235Z,5.17
2018-12-15T21:48:14.838Z,5.70
2018-12-15T21:51:08.138Z,2.98
2018-12-15T21:54:02.473Z,3.70
2018-12-15T21:56:55.784Z,3.98
2018-12-15T21:59:49.613Z,3.72
2018-12-15T22:02:43.951Z,4.78
2018-12-15T22:05:37.016Z,5.40
2018-12-15T22:08:31.089Z,4.62
2018-12-15T22:11:24.652Z,4.05
2018-12-15T22:14:17.707Z,5.80
2018-12-15T22:17:07.439Z,4.12
2018-12-15T22:20:00.747Z,6.10
2018-12-15T22:22:54.068Z,4.28
2018-12-15T22:25:47.375Z,4.78
2018-12-15T22:28:40.938Z,4.28
2018-12-15T22:31:34.572Z,5.50
2018-12-15T22:34:30.121Z,5.10
2018-12-15T22:37:24.200Z,4.25
2018-12-15T22:40:17.257Z,4.03
2018-12-15T22:43:10.568Z,4.37
2018-12-15T22:46:03.626Z,6.45
2018-12-15T22:48:56.685Z,7.12
2018-12-15T22:51:49.739Z,4.03
2018-12-15T22:54:42.793Z,4.53
2018-12-15T22:57:35.851Z,3.92
2018-12-15T23:00:29.933Z,3.25
2018-12-15T23:03:24.521Z,6.12
2018-12-15T23:06:17.833Z,3.90
2018-12-15T23:09:11.150Z,2.55
2018-12-15T23:12:04.203Z,5.33
2018-12-15T23:14:58.286Z,3.30
2018-12-15T23:17:51.612Z,4.87
2018-12-15T23:20:44.650Z,4.95
2018-12-15T23:23:49.741Z,4.20
2018-12-15T23:26:43.049Z,5.10
2018-12-15T23:29:36.624Z,4.97
2018-12-15T23:32:29.460Z,6.00
2018-12-15T23:35:23.765Z,5.08
2018-12-15T23:38:25.777Z,4.58
2018-12-15T23:41:24.761Z,5.50
2018-12-15T23:44:18.032Z,5.85
2018-12-15T23:47:11.593Z,5.28
2018-12-15T23:50:05.683Z,4.20
2018-12-15T23:52:54.384Z,4.65
2018-12-15T23:55:47.182Z,6.03
2018-12-15T23:58:40.488Z,5.00
